メインページ
METAR-TAF:

METAR-TAF

空港 :

O・R・タンボ国際空港

ヨハネスブルグ, 南アフリカ共和国

緯度: 26-08S, 経度: 028-14E, 海抜: 1694m

現時点の気象観測

当レポートは22分前の12:00(UTC)に作成
北東の風 11kt、北/北東からの間で変化する
気温 21°C
湿度 13%
気圧 1029 hPa
視程10km以上
1,500メートル以下は雲なし、積乱雲なし

METAR: FAOR 211200Z 05011KT 020V100 CAVOK 21/M08 Q1029 NOSIG

時間: 14:22 (12:22 UTC)

予報

当レポートは2時間22分前の10:00(UTC)に作成
予報は21日の 12時(UTC)から 22日の 18時(UTC)まで有効
の風 12kt
視程10km以上
1,500メートル以下は雲なし、積乱雲なし
21日の 20時(UTC)から 21日の 22時(UTC)まで徐々に
北/北東の風 7kt
高度2000ftの雲は散在している
確率 30% :
21日の 22時(UTC)から 22日の 03時(UTC)まで一時的に
高度600ftの千切れ雲あり
22日の 02時(UTC)から 22日の 04時(UTC)まで徐々に
の風 8kt

TAF: FAOR 211000Z 2112/2218 08012KT CAVOK BECMG 2120/2122 02007KT SCT020 PROB30 TEMPO 2122/2203 BKN006 BECMG 2202/2204 08008KT TX20/2112Z TN06/2204Z

4,000以上の空港の気象観測と天気予報(METAR報とTAF報)

利用可能な観測所は地図上に黄色い丸と赤い丸で示す。

丸の上にカーソルを重ねると観測所名を参照できる。

次にクリックすると気象観測と天気予報を参照できる。

マップの切り替え:黒色「×」印の緑ボタンをクリックして拡大、「-」印の緑ボタンをクリックして縮小、緑色の三角印をクリックして隣りの地図に切り替え


METAR-TAF: